Time;durP1;ratioP1;P1;durP2;ratioP2;P2;SDS_P1;SDS_P2;PMS_P1;PMS_P2;Temp;Humidity;BMP_temperature;BMP_pressure;BME280_temperature;BME280_humidity;BME280_pressure;Samples;Min_cycle;Max_cycle;Signal;HPM_P1;HPM_P2
2023/06/09 00:00:57;;;;;;;7.27;4.80;;;;;;;19.07;69.27;100913.22;6051897;28;20030;-67
2023/06/09 00:03:52;;;;;;;6.68;5.38;;;;;;;19.05;69.81;100917.97;6050889;28;20416;-67
2023/06/09 00:06:47;;;;;;;8.77;5.13;;;;;;;19.20;69.21;100921.38;6025828;28;20371;-67
2023/06/09 00:09:44;;;;;;;9.87;5.07;;;;;;;19.08;70.39;100931.03;6051306;28;20500;-67
2023/06/09 00:12:40;;;;;;;8.95;5.13;;;;;;;19.16;70.13;100917.44;6044822;28;20041;-66
2023/06/09 00:15:36;;;;;;;8.20;4.65;;;;;;;19.17;69.99;100919.91;6037550;28;20539;-67
2023/06/09 00:18:32;;;;;;;9.43;4.80;;;;;;;18.93;70.98;100929.25;6056679;28;20034;-67
2023/06/09 00:21:27;;;;;;;7.25;5.32;;;;;;;18.99;71.19;100925.78;6044808;28;20269;-67
2023/06/09 00:24:23;;;;;;;7.83;5.50;;;;;;;18.84;71.79;100905.38;6050554;28;20461;-67
2023/06/09 00:27:18;;;;;;;8.30;5.57;;;;;;;18.88;71.78;100918.25;6046696;28;20045;-67
2023/06/09 00:30:14;;;;;;;7.97;5.67;;;;;;;18.87;71.83;100913.91;6051170;28;20354;-67
2023/06/09 00:33:09;;;;;;;9.75;5.35;;;;;;;18.78;72.19;100904.31;6048046;28;20091;-67
2023/06/09 00:36:05;;;;;;;9.50;5.77;;;;;;;18.78;72.60;100920.44;6050490;28;20026;-67
2023/06/09 00:39:00;;;;;;;9.02;5.80;;;;;;;18.99;72.17;100920.41;6050718;28;20615;-67
2023/06/09 00:41:56;;;;;;;9.03;5.57;;;;;;;19.01;72.17;100904.91;6051008;28;20484;-67
2023/06/09 00:44:51;;;;;;;7.60;5.00;;;;;;;19.23;72.01;100916.44;6048381;28;20276;-67
2023/06/09 00:47:46;;;;;;;9.97;5.70;;;;;;;19.30;70.86;100917.31;6026089;28;20030;-67
2023/06/09 00:50:42;;;;;;;9.43;5.80;;;;;;;18.97;71.65;100921.63;6050766;28;20029;-67
2023/06/09 00:53:37;;;;;;;9.40;6.30;;;;;;;18.86;72.47;100919.50;6034518;28;20742;-67
2023/06/09 00:56:34;;;;;;;9.73;5.80;;;;;;;18.80;72.54;100909.50;6055617;28;20217;-67
2023/06/09 00:59:29;;;;;;;9.57;6.03;;;;;;;18.93;72.26;100923.88;6030770;28;20030;-67
2023/06/09 01:02:25;;;;;;;8.60;5.93;;;;;;;19.08;71.90;100912.22;6028374;28;20076;-67
2023/06/09 01:05:20;;;;;;;8.87;5.53;;;;;;;18.99;71.88;100911.53;6049704;28;20033;-67
2023/06/09 01:08:26;;;;;;;10.52;5.72;;;;;;;18.85;72.30;100912.44;6026645;28;20030;-66
2023/06/09 01:11:33;;;;;;;8.32;5.68;;;;;;;18.59;74.86;100917.59;6064330;28;20033;-67
2023/06/09 01:14:36;;;;;;;8.77;5.82;;;;;;;18.26;76.89;100901.13;6046136;28;20033;-67
2023/06/09 01:17:32;;;;;;;7.60;5.47;;;;;;;18.35;77.15;100902.66;6030776;28;20023;-67
2023/06/09 01:20:38;;;;;;;8.43;5.50;;;;;;;18.56;76.05;100908.06;6011711;28;20026;-67
2023/06/09 01:23:52;;;;;;;8.55;5.28;;;;;;;18.41;77.18;100905.41;6031571;28;20033;-67
2023/06/09 01:26:50;;;;;;;8.60;5.30;;;;;;;18.58;76.76;100908.69;6004602;28;20466;-67
2023/06/09 01:29:46;;;;;;;9.25;5.43;;;;;;;18.51;76.14;100894.38;6049008;28;20061;-66
2023/06/09 01:32:42;;;;;;;9.13;5.28;;;;;;;18.94;75.32;100904.03;6050023;28;20472;-67
2023/06/09 01:35:38;;;;;;;8.13;5.68;;;;;;;18.83;74.29;100898.38;6058922;28;20104;-67
2023/06/09 01:38:33;;;;;;;9.20;5.72;;;;;;;18.65;74.91;100901.53;6041005;28;20065;-67
2023/06/09 01:41:29;;;;;;;7.87;6.20;;;;;;;18.48;77.02;100918.91;6042400;28;20040;-67
2023/06/09 01:44:25;;;;;;;8.93;5.88;;;;;;;18.20;80.91;100902.72;6049308;28;20256;-67
2023/06/09 01:47:21;;;;;;;7.47;5.40;;;;;;;18.21;82.35;100904.38;6041756;28;20042;-67
2023/06/09 01:50:26;;;;;;;11.23;6.75;;;;;;;18.11;83.42;100900.34;6049538;28;20105;-67
2023/06/09 01:53:41;;;;;;;9.45;6.90;;;;;;;17.97;84.09;100901.22;6047863;28;20489;-67
2023/06/09 01:56:44;;;;;;;12.70;7.03;;;;;;;18.05;84.76;100904.63;6051221;28;20029;-67
2023/06/09 01:59:47;;;;;;;10.23;7.05;;;;;;;17.90;86.04;100894.94;6054699;28;20058;-66
2023/06/09 02:02:45;;;;;;;12.27;7.28;;;;;;;17.91;87.45;100885.88;6069564;28;20100;-67
2023/06/09 02:05:41;;;;;;;10.00;6.80;;;;;;;18.11;88.55;100892.28;6047238;28;20046;-67
2023/06/09 02:08:37;;;;;;;8.75;6.22;;;;;;;17.81;86.96;100884.31;6029929;28;20040;-67
2023/06/09 02:11:32;;;;;;;11.55;7.03;;;;;;;17.80;87.65;100906.81;6054420;28;20137;-67
2023/06/09 02:14:32;;;;;;;12.35;7.05;;;;;;;17.65;88.10;100897.97;6058963;28;20045;-67
2023/06/09 02:17:28;;;;;;;;;;;;;;;17.69;88.02;100909.97;6041090;28;20030;-67
2023/06/09 02:20:23;;;;;;;11.97;6.97;;;;;;;17.60;88.19;100905.75;6048130;28;19914;-67
2023/06/09 02:23:20;;;;;;;12.30;7.43;;;;;;;17.65;88.23;100895.28;6030335;28;20038;-66
2023/06/09 02:26:15;;;;;;;10.35;6.75;;;;;;;17.89;87.88;100904.00;6041987;28;20065;-67
2023/06/09 02:29:11;;;;;;;9.97;7.50;;;;;;;17.85;87.91;100907.06;6053923;28;20373;-67
2023/06/09 02:32:07;;;;;;;11.40;6.80;;;;;;;17.90;87.81;100897.63;6053940;28;20092;-67
2023/06/09 02:35:03;;;;;;;9.88;7.03;;;;;;;18.02;87.30;100894.25;6034860;28;20027;-67
2023/06/09 02:38:04;;;;;;;10.07;7.07;;;;;;;18.15;86.92;100921.25;6043079;28;20040;-67
2023/06/09 02:40:59;;;;;;;10.73;6.63;;;;;;;18.00;87.52;100911.56;6053724;28;20033;-67
2023/06/09 02:43:55;;;;;;;9.63;6.23;;;;;;;18.18;86.89;100920.06;6041137;28;20045;-67
2023/06/09 02:46:51;;;;;;;11.40;7.60;;;;;;;18.14;85.62;100884.69;6043243;28;20417;-67
2023/06/09 02:49:46;;;;;;;9.50;6.68;;;;;;;18.46;84.46;100918.25;6042828;28;20041;-67
2023/06/09 02:52:42;;;;;;;12.40;7.53;;;;;;;18.13;84.75;100898.28;6040350;28;20053;-67
2023/06/09 02:55:38;;;;;;;10.23;7.13;;;;;;;18.06;85.39;100914.34;6052699;28;20021;-67
2023/06/09 02:58:33;;;;;;;10.45;7.32;;;;;;;17.79;87.54;100907.84;6032287;28;20464;-67
2023/06/09 03:01:34;;;;;;;11.27;7.00;;;;;;;17.66;88.97;100909.53;6053359;28;20026;-67
2023/06/09 03:04:30;;;;;;;10.50;7.43;;;;;;;17.39;90.42;100902.97;6048513;28;20376;-67
2023/06/09 03:07:25;;;;;;;10.00;6.63;;;;;;;17.19;92.46;100913.38;6035726;28;20036;-67
2023/06/09 03:10:20;;;;;;;10.10;6.82;;;;;;;17.38;92.30;100905.81;6038150;28;20027;-67
2023/06/09 03:13:16;;;;;;;12.77;7.80;;;;;;;17.28;92.37;100911.47;6052006;28;20108;-67
2023/06/09 03:16:11;;;;;;;13.53;6.90;;;;;;;17.21;93.33;100930.13;6040173;28;20030;-67
2023/06/09 03:19:07;;;;;;;11.05;7.13;;;;;;;17.25;94.54;100933.28;6043144;28;20291;-67
2023/06/09 03:22:03;;;;;;;13.00;7.75;;;;;;;17.25;93.35;100925.22;6040155;28;20034;-66
2023/06/09 03:24:58;;;;;;;12.40;7.82;;;;;;;17.14;93.68;100925.69;6067583;28;20026;-67
2023/06/09 03:27:54;;;;;;;12.43;7.93;;;;;;;16.99;94.55;100927.47;6034942;28;20074;-67
2023/06/09 03:30:49;;;;;;;13.63;8.80;;;;;;;17.02;95.82;100937.84;6041064;28;20038;-66
2023/06/09 03:33:44;;;;;;;13.90;9.07;;;;;;;16.96;94.78;100942.06;6030901;28;20271;-67
2023/06/09 03:36:39;;;;;;;12.90;9.00;;;;;;;17.11;94.59;100937.59;6052169;28;20041;-67
2023/06/09 03:39:35;;;;;;;18.50;9.67;;;;;;;17.00;93.92;100942.56;6047384;28;20034;-67
2023/06/09 03:42:30;;;;;;;16.30;9.03;;;;;;;16.94;94.30;100945.97;6046923;28;20543;-67
2023/06/09 03:45:25;;;;;;;13.63;9.43;;;;;;;17.05;94.58;100948.19;6045243;28;20278;-67
2023/06/09 03:48:21;;;;;;;15.43;8.80;;;;;;;17.13;92.16;100956.16;6049926;28;20461;-66
2023/06/09 03:51:16;;;;;;;11.07;8.17;;;;;;;17.29;88.89;100939.91;6051882;28;20436;-65
2023/06/09 03:54:11;;;;;;;13.87;8.30;;;;;;;17.47;88.13;100937.72;6051322;28;20026;-66
2023/06/09 03:57:06;;;;;;;11.47;7.87;;;;;;;17.75;87.07;100941.41;6051660;28;20084;-68
2023/06/09 04:00:03;;;;;;;11.67;7.50;;;;;;;17.69;86.54;100946.72;6034140;28;20037;-66
2023/06/09 04:02:58;;;;;;;12.85;8.43;;;;;;;17.94;85.66;100949.91;6040953;28;20470;-66
2023/06/09 04:05:53;;;;;;;13.77;8.80;;;;;;;17.91;84.90;100952.97;6022583;28;20043;-66
2023/06/09 04:08:49;;;;;;;11.67;8.47;;;;;;;17.67;85.79;100951.41;6030737;28;20054;-67
2023/06/09 04:11:44;;;;;;;14.83;8.50;;;;;;;17.61;85.30;100947.63;6018299;28;20278;-66
2023/06/09 04:14:39;;;;;;;15.43;8.53;;;;;;;17.59;85.26;100946.97;6031696;28;20030;-66
2023/06/09 04:17:37;;;;;;;11.93;8.83;;;;;;;17.61;85.59;100955.66;6049955;28;20034;-66
2023/06/09 04:20:34;;;;;;;14.65;9.73;;;;;;;17.69;85.44;100952.06;6051039;28;20022;-66
2023/06/09 04:23:32;;;;;;;14.10;9.95;;;;;;;17.94;84.25;100960.66;6046450;28;20030;-66
2023/06/09 04:26:27;;;;;;;14.85;9.10;;;;;;;17.73;84.68;100940.78;6048415;28;20038;-66
2023/06/09 04:29:23;;;;;;;13.47;9.73;;;;;;;17.88;84.67;100966.75;6028786;28;20365;-66
2023/06/09 04:32:19;;;;;;;12.57;8.63;;;;;;;18.08;84.25;100952.56;6051021;28;20026;-66
2023/06/09 04:35:15;;;;;;;15.63;8.63;;;;;;;17.73;84.71;100950.66;6050620;28;20030;-66
2023/06/09 04:38:10;;;;;;;12.88;8.70;;;;;;;17.85;84.21;100957.22;6051049;28;20422;-66
2023/06/09 04:41:05;;;;;;;10.87;8.00;;;;;;;17.68;83.17;100940.50;6043945;28;20045;-66
2023/06/09 04:44:05;;;;;;;11.87;9.43;;;;;;;17.69;83.33;100957.44;6050492;28;20400;-66
2023/06/09 04:47:02;;;;;;;13.85;8.88;;;;;;;17.66;83.32;100944.41;6050676;28;20065;-66
2023/06/09 04:49:57;;;;;;;15.43;9.77;;;;;;;17.67;82.65;100944.19;6044939;28;20026;-66
2023/06/09 04:52:53;;;;;;;15.37;9.53;;;;;;;17.71;82.15;100958.91;6051156;28;20056;-66
2023/06/09 04:55:48;;;;;;;12.52;9.00;;;;;;;17.65;82.39;100940.03;6036689;28;20030;-66
2023/06/09 04:58:44;;;;;;;13.07;8.80;;;;;;;17.69;82.17;100955.56;6046251;28;20026;-68
2023/06/09 05:01:40;;;;;;;12.73;8.13;;;;;;;17.75;81.71;100956.66;6050039;28;20037;-66
2023/06/09 05:04:35;;;;;;;16.23;9.27;;;;;;;17.94;81.25;100956.09;6049910;28;20269;-66
2023/06/09 05:07:30;;;;;;;13.80;9.43;;;;;;;17.87;79.91;100954.34;6050367;28;20033;-66
2023/06/09 05:10:26;;;;;;;15.30;8.90;;;;;;;17.87;79.40;100965.91;6048649;28;20030;-66
2023/06/09 05:13:21;;;;;;;12.40;8.47;;;;;;;18.00;78.89;100970.63;6019707;28;20037;-66
2023/06/09 05:16:16;;;;;;;13.83;8.17;;;;;;;17.99;78.75;100969.78;6038060;28;20497;-66
2023/06/09 05:19:11;;;;;;;12.10;7.90;;;;;;;17.83;77.87;100960.09;6050416;28;20108;-66
2023/06/09 05:22:07;;;;;;;13.90;8.27;;;;;;;17.97;78.03;100968.28;6045746;28;20021;-66
2023/06/09 05:25:03;;;;;;;12.10;7.73;;;;;;;17.97;77.26;100961.09;6049654;28;20453;-67
2023/06/09 05:27:58;;;;;;;13.13;8.02;;;;;;;18.00;76.12;100975.97;6030833;28;20113;-67
2023/06/09 05:30:53;;;;;;;12.97;7.30;;;;;;;17.94;76.44;100958.78;6049545;28;20041;-67
2023/06/09 05:33:49;;;;;;;11.40;7.33;;;;;;;18.01;76.15;100972.28;6048884;28;20025;-67
2023/06/09 05:36:44;;;;;;;11.80;7.17;;;;;;;18.17;75.29;100978.28;6044077;28;20085;-66
2023/06/09 05:39:40;;;;;;;11.07;6.95;;;;;;;18.28;74.45;100993.06;6030940;28;20521;-66
2023/06/09 05:42:35;;;;;;;10.98;7.10;;;;;;;18.33;73.07;100990.63;6049971;28;20038;-67
2023/06/09 05:45:31;;;;;;;13.73;6.63;;;;;;;18.49;72.18;100982.38;6030843;28;20461;-67
2023/06/09 05:48:26;;;;;;;9.37;6.23;;;;;;;18.50;70.85;100993.94;6049700;28;20022;-66
2023/06/09 05:51:21;;;;;;;11.40;6.00;;;;;;;18.36;71.04;100985.72;6049729;28;20034;-66
2023/06/09 05:54:18;;;;;;;10.07;6.27;;;;;;;18.56;70.67;100994.03;6049271;28;20092;-67
2023/06/09 05:57:13;;;;;;;10.90;6.43;;;;;;;18.59;70.21;100996.31;6051636;28;20036;-66
2023/06/09 06:00:09;;;;;;;16.98;6.88;;;;;;;18.65;69.36;100981.28;6044217;28;20351;-67
2023/06/09 06:03:06;;;;;;;17.63;7.03;;;;;;;18.92;69.88;100994.78;6047852;28;20112;-66
2023/06/09 06:06:03;;;;;;;11.82;7.00;;;;;;;19.00;68.66;100991.97;6048820;28;20084;-67
2023/06/09 06:08:58;;;;;;;9.05;5.78;;;;;;;19.14;67.67;100982.13;6049347;28;20029;-66
2023/06/09 06:11:54;;;;;;;11.27;6.07;;;;;;;19.36;66.31;100993.69;6049666;28;20030;-66
2023/06/09 06:14:49;;;;;;;12.80;6.00;;;;;;;19.40;66.91;100995.84;6036038;28;20276;-66
2023/06/09 06:17:44;;;;;;;10.77;6.30;;;;;;;19.58;66.33;101004.22;6033792;28;20722;-68
2023/06/09 06:20:40;;;;;;;11.55;6.43;;;;;;;19.45;66.77;101006.00;6049251;28;20049;-66
2023/06/09 06:23:35;;;;;;;10.68;6.03;;;;;;;19.14;67.00;100986.69;6044846;28;20052;-66
2023/06/09 06:26:31;;;;;;;9.95;6.03;;;;;;;19.26;67.45;100985.13;6049433;28;20477;-66
2023/06/09 06:29:26;;;;;;;10.30;5.90;;;;;;;19.54;66.42;100989.50;6049086;28;20026;-66
2023/06/09 06:32:22;;;;;;;11.05;6.38;;;;;;;19.84;64.59;100992.75;6047543;28;20385;-66
2023/06/09 06:35:30;;;;;;;10.70;6.30;;;;;;;19.62;65.69;100991.22;6044433;28;20377;-66
2023/06/09 06:38:25;;;;;;;9.32;5.85;;;;;;;19.57;66.51;100993.63;6039751;28;20355;-66
2023/06/09 06:41:21;;;;;;;9.27;6.27;;;;;;;19.60;65.35;100995.94;6049065;28;20030;-66
2023/06/09 06:44:16;;;;;;;10.87;6.10;;;;;;;19.60;65.36;100982.47;6051580;28;20049;-66
2023/06/09 06:47:11;;;;;;;11.43;5.07;;;;;;;19.99;64.91;100998.84;6053560;28;20037;-66
2023/06/09 06:50:08;;;;;;;12.87;6.33;;;;;;;19.80;64.31;100986.13;6048239;28;20372;-67
2023/06/09 06:53:03;;;;;;;11.85;5.82;;;;;;;19.85;63.63;100991.75;6053506;28;20072;-67
2023/06/09 06:55:59;;;;;;;14.53;6.83;;;;;;;19.71;64.10;101000.78;6052219;28;20477;-67
2023/06/09 06:58:54;;;;;;;8.55;6.15;;;;;;;20.12;63.14;101016.94;6053341;28;20380;-66
2023/06/09 07:01:49;;;;;;;11.53;5.50;;;;;;;20.29;61.58;101003.97;6053403;28;20109;-67
2023/06/09 07:04:45;;;;;;;9.27;6.10;;;;;;;20.24;60.23;101007.28;6046071;28;20373;-67
2023/06/09 07:07:40;;;;;;;9.57;5.27;;;;;;;20.34;60.19;101018.50;6047841;28;20040;-67
2023/06/09 07:10:35;;;;;;;9.90;5.00;;;;;;;20.43;60.39;101024.53;6052960;28;20058;-68
2023/06/09 07:13:30;;;;;;;9.30;5.67;;;;;;;20.27;60.22;101016.81;6050116;28;20279;-67
2023/06/09 07:16:26;;;;;;;10.30;5.47;;;;;;;20.24;60.68;101007.28;6034187;28;20026;-66
2023/06/09 07:19:21;;;;;;;11.20;6.00;;;;;;;20.03;61.75;101010.88;6041139;28;20030;-67
2023/06/09 07:22:16;;;;;;;9.30;5.47;;;;;;;20.09;61.39;101011.94;6038377;28;20068;-66
2023/06/09 07:25:12;;;;;;;14.23;6.10;;;;;;;19.90;62.08;101010.81;6041705;28;20113;-66
2023/06/09 07:28:07;;;;;;;9.50;6.17;;;;;;;20.03;62.72;101021.66;6052797;28;20034;-66
2023/06/09 07:31:02;;;;;;;13.00;5.97;;;;;;;20.05;63.59;101024.16;6052684;28;20446;-65
2023/06/09 07:33:58;;;;;;;10.63;5.23;;;;;;;20.19;61.99;101028.56;6051571;28;20076;-65
2023/06/09 07:36:53;;;;;;;9.43;5.63;;;;;;;20.48;60.77;101025.59;6048874;28;20039;-68
2023/06/09 07:39:49;;;;;;;11.65;5.40;;;;;;;20.43;59.07;101029.94;6046092;28;20267;-67
2023/06/09 07:42:44;;;;;;;10.93;5.40;;;;;;;20.41;59.39;101030.13;6052533;28;20037;-67
2023/06/09 07:45:39;;;;;;;11.07;5.22;;;;;;;20.48;59.02;101019.38;6051791;28;20480;-67
2023/06/09 07:48:37;;;;;;;9.43;4.90;;;;;;;20.25;59.90;101026.97;6052028;28;20022;-67
2023/06/09 07:51:37;;;;;;;11.15;5.60;;;;;;;20.42;59.90;101036.34;6046326;28;20092;-68
2023/06/09 07:54:32;;;;;;;12.07;5.22;;;;;;;20.36;60.90;101023.66;6046431;28;20038;-67
2023/06/09 07:57:28;;;;;;;15.50;5.82;;;;;;;20.48;60.49;101028.28;6052189;28;20033;-67
2023/06/09 08:00:23;;;;;;;15.30;5.70;;;;;;;20.40;61.41;101041.13;6052006;28;20034;-68
2023/06/09 08:03:18;;;;;;;12.07;5.70;;;;;;;20.29;60.75;101036.28;6051299;28;20594;-67
2023/06/09 08:06:14;;;;;;;10.07;5.47;;;;;;;20.49;60.46;101029.94;6025913;28;20618;-66
2023/06/09 08:09:09;;;;;;;11.93;5.13;;;;;;;20.68;59.59;101036.44;6046519;28;20053;-66
2023/06/09 08:12:06;;;;;;;10.00;5.33;;;;;;;20.42;60.06;101039.03;6051676;28;20034;-66
2023/06/09 08:15:01;;;;;;;9.20;5.60;;;;;;;20.39;60.82;101047.53;6037759;28;20030;-66
2023/06/09 08:17:57;;;;;;;10.90;5.60;;;;;;;20.11;62.00;101039.53;6047204;28;20531;-66
2023/06/09 08:20:52;;;;;;;7.90;4.87;;;;;;;20.56;61.05;101044.28;6037805;28;20529;-66
2023/06/09 08:23:47;;;;;;;8.93;5.33;;;;;;;20.31;60.92;101045.00;6042944;28;20034;-66
2023/06/09 08:26:43;;;;;;;10.80;5.13;;;;;;;20.34;61.33;101039.22;6051312;28;20728;-66
2023/06/09 08:29:38;;;;;;;8.30;4.90;;;;;;;20.39;60.94;101047.53;6051178;28;20022;-65
2023/06/09 08:32:34;;;;;;;10.88;5.50;;;;;;;20.28;60.49;101040.84;6052859;28;20080;-65
2023/06/09 08:35:32;;;;;;;8.77;5.37;;;;;;;20.20;61.03;101043.69;6052697;28;20061;-66
2023/06/09 08:38:27;;;;;;;10.40;5.38;;;;;;;20.24;61.68;101041.44;6031085;28;20355;-67
2023/06/09 08:41:27;;;;;;;9.18;4.78;;;;;;;20.56;60.69;101046.97;6051109;28;20500;-66
2023/06/09 08:44:25;;;;;;;11.52;5.97;;;;;;;20.06;61.30;101048.19;6050162;28;20026;-66
2023/06/09 08:47:22;;;;;;;9.73;5.32;;;;;;;20.43;60.89;101048.78;6050889;28;20034;-66
2023/06/09 08:50:20;;;;;;;8.80;5.38;;;;;;;20.60;60.76;101060.88;6050797;28;20037;-66
2023/06/09 08:53:16;;;;;;;13.00;5.38;;;;;;;20.46;61.17;101059.16;6027839;28;20026;-66
2023/06/09 08:56:11;;;;;;;8.60;5.03;;;;;;;20.38;61.15;101045.88;6028483;28;20034;-66
2023/06/09 08:59:07;;;;;;;12.90;5.40;;;;;;;20.25;61.65;101052.03;6050492;28;20057;-66
2023/06/09 09:02:02;;;;;;;12.20;5.83;;;;;;;20.40;62.38;101046.50;6050781;28;20030;-66
2023/06/09 09:05:00;;;;;;;10.95;5.60;;;;;;;20.77;60.13;101062.16;6049957;28;20053;-66
2023/06/09 09:07:55;;;;;;;9.98;5.20;;;;;;;20.68;60.43;101052.63;6050084;28;20497;-66
2023/06/09 09:10:51;;;;;;;10.97;5.03;;;;;;;20.96;60.12;101052.44;6040951;28;20079;-66
2023/06/09 09:13:49;;;;;;;11.50;5.97;;;;;;;20.64;59.42;101072.91;6021471;28;20034;-67
2023/06/09 09:16:44;;;;;;;10.68;5.07;;;;;;;20.87;60.13;101068.00;6041693;28;20425;-66
2023/06/09 09:19:45;;;;;;;10.77;5.47;;;;;;;20.45;60.56;101052.09;6050091;28;20072;-65
2023/06/09 09:22:44;;;;;;;9.90;5.25;;;;;;;20.52;60.57;101064.56;6045539;28;20030;-66
2023/06/09 09:25:41;;;;;;;9.15;5.22;;;;;;;20.62;59.17;101053.41;6047105;28;20105;-66
2023/06/09 09:28:40;;;;;;;8.27;5.18;;;;;;;20.49;59.81;101056.06;6035813;28;20029;-66
2023/06/09 09:31:39;;;;;;;10.18;6.05;;;;;;;20.46;59.49;101060.00;6050038;28;20033;-66
2023/06/09 09:34:34;;;;;;;12.00;6.30;;;;;;;20.32;59.93;101035.91;6047939;28;20497;-65
2023/06/09 09:37:30;;;;;;;9.35;5.30;;;;;;;20.40;59.73;101059.97;6048775;28;20068;-66
2023/06/09 09:40:25;;;;;;;10.30;5.20;;;;;;;20.16;59.51;101037.06;6049801;28;20037;-66
2023/06/09 09:43:24;;;;;;;9.43;5.77;;;;;;;20.05;61.14;101057.31;6038625;28;20038;-66
2023/06/09 09:46:20;;;;;;;12.30;5.60;;;;;;;19.83;61.92;101058.41;6049839;28;20469;-66
2023/06/09 09:49:22;;;;;;;11.02;5.15;;;;;;;19.83;61.12;101042.25;6049265;28;20041;-66
2023/06/09 09:52:28;;;;;;;12.45;5.43;;;;;;;19.93;59.81;101034.66;6049709;28;20473;-68
2023/06/09 09:55:24;;;;;;;9.02;4.63;;;;;;;20.32;58.94;101036.75;6048751;28;20046;-65
2023/06/09 09:58:20;;;;;;;12.27;5.43;;;;;;;20.33;58.57;101043.75;6049626;28;20369;-67
2023/06/09 10:01:20;;;;;;;10.68;4.50;;;;;;;20.49;57.89;101050.69;6060197;28;20163;-66
2023/06/09 10:04:17;;;;;;;10.57;4.97;;;;;;;20.45;58.46;101052.09;6048731;28;20026;-66
2023/06/09 10:07:14;;;;;;;9.43;4.93;;;;;;;20.56;57.15;101038.06;6049605;28;20048;-66
2023/06/09 10:10:09;;;;;;;10.15;5.43;;;;;;;20.65;57.82;101028.75;6048159;28;20112;-66
2023/06/09 10:13:05;;;;;;;8.70;5.33;;;;;;;20.66;58.04;101038.47;6064677;28;20034;-67
2023/06/09 10:16:01;;;;;;;10.32;5.72;;;;;;;20.56;58.92;101044.28;6018005;28;20031;-66
2023/06/09 10:18:56;;;;;;;13.52;5.68;;;;;;;20.55;58.38;101039.06;6038418;28;20037;-66
2023/06/09 10:21:52;;;;;;;9.87;5.50;;;;;;;20.59;58.61;101046.56;6050178;28;20040;-66
2023/06/09 10:24:48;;;;;;;9.57;5.65;;;;;;;20.63;57.76;101022.72;6053146;28;20115;-67
2023/06/09 10:27:43;;;;;;;11.33;5.10;;;;;;;21.00;57.55;101024.88;6054156;28;20022;-67
2023/06/09 10:30:39;;;;;;;9.57;5.38;;;;;;;20.76;58.01;101017.38;6069044;28;20305;-67
2023/06/09 10:33:36;;;;;;;8.97;4.60;;;;;;;21.10;57.91;101030.72;6028004;28;20037;-67
2023/06/09 10:36:37;;;;;;;9.65;5.35;;;;;;;21.16;58.23;101031.75;6069047;28;20257;-66
2023/06/09 10:39:52;;;;;;;13.32;7.10;;;;;;;22.01;55.96;101031.66;6068777;28;20029;-66
2023/06/09 10:42:59;;;;;;;12.73;6.07;;;;;;;22.09;55.77;101027.91;6053729;28;20037;-66
2023/06/09 10:45:57;;;;;;;14.00;6.05;;;;;;;22.49;55.12;101023.97;6052902;28;20026;-67
2023/06/09 10:48:52;;;;;;;14.48;6.22;;;;;;;22.69;54.25;101026.59;6040646;28;20466;-66
2023/06/09 10:51:47;;;;;;;10.20;6.07;;;;;;;22.55;55.00;101012.28;6052789;28;20041;-67
2023/06/09 10:55:09;;;;;;;11.47;6.63;;;;;;;22.74;53.77;101030.31;6052890;28;20108;-66
2023/06/09 10:58:36;;;;;;;12.15;6.53;;;;;;;23.13;53.36;101023.75;6053225;28;20756;-66
2023/06/09 11:01:32;;;;;;;9.90;5.82;;;;;;;23.53;52.21;101003.47;6053404;28;20034;-66
2023/06/09 11:04:46;;;;;;;9.23;6.00;;;;;;;24.16;51.43;101017.56;6044964;28;20038;-66
2023/06/09 11:07:43;;;;;;;9.93;6.43;;;;;;;23.81;51.46;101002.13;6050447;28;20030;-67
2023/06/09 11:10:39;;;;;;;10.55;6.55;;;;;;;23.84;51.42;101007.06;6053035;28;20369;-66
2023/06/09 11:13:39;;;;;;;10.13;6.45;;;;;;;24.59;50.07;101011.16;6049696;28;20026;-67
2023/06/09 11:17:16;;;;;;;10.48;6.25;;;;;;;25.02;49.89;101009.06;6043332;28;20029;-67
2023/06/09 11:20:17;;;;;;;13.18;6.65;;;;;;;24.75;50.31;101007.81;6048936;28;20029;-67
2023/06/09 11:23:12;;;;;;;10.52;6.30;;;;;;;24.18;52.50;101010.06;6034731;28;20117;-67
2023/06/09 11:26:24;;;;;;;11.07;6.50;;;;;;;24.01;53.02;100997.31;6067382;28;20026;-66
2023/06/09 11:29:20;;;;;;;12.88;5.80;;;;;;;24.28;53.20;100991.34;6051122;28;20273;-67
2023/06/09 11:32:19;;;;;;;11.90;6.43;;;;;;;24.34;51.66;101000.47;6052620;28;20053;-66
2023/06/09 11:35:35;;;;;;;12.30;6.57;;;;;;;24.65;50.57;101002.91;6051614;28;20092;-67
2023/06/09 11:38:30;;;;;;;10.77;6.82;;;;;;;24.33;52.10;100993.38;6022929;28;20059;-66
2023/06/09 11:41:26;;;;;;;11.35;7.65;;;;;;;24.87;51.24;100983.44;6041087;28;20376;-66
2023/06/09 11:44:24;;;;;;;11.77;6.80;;;;;;;24.91;51.13;100968.34;6067109;28;20037;-66
2023/06/09 11:47:28;;;;;;;9.10;6.10;;;;;;;25.21;50.22;100974.50;6067162;28;20129;-67
2023/06/09 11:50:24;;;;;;;9.48;6.60;;;;;;;25.84;49.57;100967.28;6051987;28;20034;-67
2023/06/09 11:53:21;;;;;;;10.07;6.35;;;;;;;26.25;47.96;100968.13;6040349;28;20101;-67
2023/06/09 11:56:17;;;;;;;9.60;5.95;;;;;;;26.76;46.50;100978.88;6034780;28;20091;-67
2023/06/09 11:59:12;;;;;;;13.37;6.10;;;;;;;26.94;46.99;100978.66;6051830;28;20073;-67
2023/06/09 12:02:09;;;;;;;12.73;6.63;;;;;;;27.30;45.57;100971.06;6051657;28;20018;-67
2023/06/09 12:05:10;;;;;;;11.60;6.18;;;;;;;27.02;46.04;100964.63;6050917;28;20033;-67
2023/06/09 12:08:11;;;;;;;9.60;6.28;;;;;;;27.38;45.48;100965.19;6051561;28;20036;-67
2023/06/09 12:11:15;;;;;;;13.82;6.50;;;;;;;27.91;43.32;100954.47;6033001;28;20465;-67
2023/06/09 12:14:11;;;;;;;14.77;6.47;;;;;;;27.89;43.84;100964.81;6043633;28;20121;-67
2023/06/09 12:17:06;;;;;;;11.82;7.55;;;;;;;27.50;43.99;100949.59;6045760;28;20087;-67
2023/06/09 12:20:24;;;;;;;13.67;7.07;;;;;;;27.46;44.31;100951.16;6051557;28;20382;-66
2023/06/09 12:23:27;;;;;;;10.77;6.38;;;;;;;27.70;44.31;100944.41;6045795;28;20034;-67
2023/06/09 12:26:22;;;;;;;12.10;6.25;;;;;;;28.70;42.54;100952.13;6039340;28;20026;-67
2023/06/09 12:29:24;;;;;;;9.63;6.43;;;;;;;28.83;41.90;100935.31;6051235;28;20079;-68
2023/06/09 12:32:23;;;;;;;10.80;7.45;;;;;;;28.02;43.31;100945.38;6051384;28;20378;-68
2023/06/09 12:35:18;;;;;;;11.48;6.63;;;;;;;27.62;44.15;100939.38;6050361;28;20080;-67
2023/06/09 12:38:14;;;;;;;9.27;5.93;;;;;;;28.91;41.67;100943.84;6050849;28;20018;-68
2023/06/09 12:41:11;;;;;;;10.40;6.45;;;;;;;28.31;43.02;100946.81;6050652;28;20670;-68
2023/06/09 12:44:06;;;;;;;9.88;5.90;;;;;;;28.68;42.60;100922.34;6034569;28;20033;-68
2023/06/09 12:47:02;;;;;;;11.67;6.43;;;;;;;29.34;41.70;100920.94;6051083;28;20041;-67
2023/06/09 12:50:00;;;;;;;11.57;6.27;;;;;;;29.47;41.41;100917.72;6050812;28;20053;-68
2023/06/09 12:52:55;;;;;;;12.77;6.88;;;;;;;29.65;40.90;100929.31;6045675;28;20273;-67
2023/06/09 12:55:50;;;;;;;9.90;6.23;;;;;;;28.54;42.43;100926.53;6042899;28;20034;-67
2023/06/09 12:58:46;;;;;;;10.07;6.40;;;;;;;28.87;40.51;100914.56;6043412;28;20529;-67
2023/06/09 13:01:41;;;;;;;16.25;6.68;;;;;;;29.58;40.03;100909.56;6050769;28;20022;-68
2023/06/09 13:04:37;;;;;;;11.90;6.33;;;;;;;29.50;39.49;100919.09;6049882;28;20109;-68
2023/06/09 13:07:32;;;;;;;12.27;6.20;;;;;;;29.86;38.67;100903.72;6050164;28;20813;-67
2023/06/09 13:10:28;;;;;;;8.43;6.07;;;;;;;30.11;38.44;100903.78;6050208;28;20033;-68
2023/06/09 13:13:24;;;;;;;10.27;6.30;;;;;;;29.61;40.33;100906.31;6048302;28;20022;-68
2023/06/09 13:16:19;;;;;;;9.38;6.30;;;;;;;29.86;39.32;100890.84;6037081;28;20037;-68
2023/06/09 13:19:15;;;;;;;11.07;7.00;;;;;;;29.89;39.13;100889.50;6050178;28;20474;-68
2023/06/09 13:22:11;;;;;;;10.45;6.13;;;;;;;30.03;39.97;100888.69;6045851;28;20042;-68
2023/06/09 13:25:07;;;;;;;9.63;6.30;;;;;;;30.05;39.24;100885.69;6049519;28;20041;-68
2023/06/09 13:28:03;;;;;;;10.25;6.00;;;;;;;29.60;40.75;100897.28;6049637;28;20631;-68
2023/06/09 13:30:58;;;;;;;11.38;5.97;;;;;;;29.14;40.99;100889.88;6044697;28;20031;-67
2023/06/09 13:33:54;;;;;;;11.45;6.22;;;;;;;28.52;41.83;100906.88;6033398;28;20034;-67
2023/06/09 13:36:49;;;;;;;10.93;6.17;;;;;;;28.74;40.88;100896.72;6046687;28;20061;-67